createdAt,value
2022-09-03T00:02:12.281Z,15.20
2022-09-03T00:05:23.594Z,15.20
2022-09-03T00:08:40.772Z,15.20
2022-09-03T00:12:05.958Z,15.20
2022-09-03T00:15:12.563Z,15.20
2022-09-03T00:18:20.282Z,15.20
2022-09-03T00:21:52.537Z,15.20
2022-09-03T00:24:56.796Z,15.20
2022-09-03T00:28:01.677Z,15.20
2022-09-03T00:31:11.922Z,15.20
2022-09-03T00:34:39.500Z,15.10
2022-09-03T00:37:41.998Z,15.20
2022-09-03T00:41:08.710Z,15.10
2022-09-03T00:44:16.416Z,15.10
2022-09-03T00:47:42.312Z,15.10
2022-09-03T00:51:01.035Z,15.00
2022-09-03T00:54:11.025Z,15.00
2022-09-03T00:57:15.995Z,15.00
2022-09-03T01:00:20.467Z,15.00
2022-09-03T01:03:51.383Z,14.90
2022-09-03T01:07:52.180Z,14.90
2022-09-03T01:11:30.014Z,14.90
2022-09-03T01:15:04.358Z,14.80
2022-09-03T01:18:15.239Z,14.80
2022-09-03T01:21:46.728Z,14.90
2022-09-03T01:25:03.686Z,14.80
2022-09-03T01:28:40.521Z,14.70
2022-09-03T01:32:41.828Z,14.70
2022-09-03T01:35:52.738Z,14.60
2022-09-03T01:39:00.320Z,14.70
2022-09-03T01:42:24.895Z,14.60
2022-09-03T01:46:01.666Z,14.60
2022-09-03T01:49:41.572Z,14.50
2022-09-03T01:52:52.684Z,14.50
2022-09-03T01:56:09.953Z,14.50
2022-09-03T01:59:42.056Z,14.40
2022-09-03T02:02:49.231Z,14.40
2022-09-03T02:05:53.261Z,14.40
2022-09-03T02:08:55.135Z,14.50
2022-09-03T02:12:08.734Z,14.40
2022-09-03T02:15:13.165Z,14.40
2022-09-03T02:18:25.514Z,14.40
2022-09-03T02:21:32.732Z,14.50
2022-09-03T02:24:34.701Z,14.40
2022-09-03T02:27:38.343Z,14.40
2022-09-03T02:30:40.384Z,14.40
2022-09-03T02:33:47.603Z,14.40
2022-09-03T02:36:49.547Z,14.40
2022-09-03T02:39:54.651Z,14.30
2022-09-03T02:42:56.735Z,14.30
2022-09-03T02:46:05.802Z,14.40
2022-09-03T02:49:09.174Z,14.30
2022-09-03T02:52:12.241Z,14.30
2022-09-03T02:55:14.219Z,14.20
2022-09-03T02:58:16.209Z,14.30
2022-09-03T03:01:24.100Z,14.30
2022-09-03T03:04:26.479Z,14.30
2022-09-03T03:07:34.498Z,14.20
2022-09-03T03:10:38.683Z,14.20
2022-09-03T03:13:40.631Z,14.20
2022-09-03T03:16:42.610Z,14.20
2022-09-03T03:19:44.591Z,14.20
2022-09-03T03:22:46.488Z,14.20
2022-09-03T03:25:48.535Z,14.20
2022-09-03T03:28:56.833Z,14.10
2022-09-03T03:31:59.013Z,14.10
2022-09-03T03:35:00.891Z,14.20
2022-09-03T03:38:03.112Z,14.00
2022-09-03T03:41:13.614Z,14.10
2022-09-03T03:44:15.636Z,14.10
2022-09-03T03:47:18.347Z,14.10
2022-09-03T03:50:20.940Z,14.10
2022-09-03T03:53:22.803Z,14.00
2022-09-03T03:56:26.271Z,14.00
2022-09-03T03:59:28.158Z,14.00
2022-09-03T04:02:30.151Z,14.10
2022-09-03T04:05:33.761Z,14.20
2022-09-03T04:08:41.705Z,14.10
2022-09-03T04:11:43.572Z,14.20
2022-09-03T04:14:45.562Z,14.30
2022-09-03T04:17:47.451Z,14.30
2022-09-03T04:20:49.355Z,14.40
2022-09-03T04:23:52.734Z,14.40
2022-09-03T04:26:54.830Z,14.50
2022-09-03T04:29:56.700Z,14.50
2022-09-03T04:32:58.737Z,14.60
2022-09-03T04:36:18.208Z,14.70
2022-09-03T04:39:20.301Z,14.70
2022-09-03T04:42:22.197Z,14.70
2022-09-03T04:45:24.128Z,14.80
2022-09-03T04:48:27.384Z,14.80
2022-09-03T04:51:30.200Z,15.00
2022-09-03T04:54:33.022Z,15.10
2022-09-03T04:57:37.933Z,15.20
2022-09-03T05:00:40.296Z,15.20
2022-09-03T05:03:42.366Z,15.20
2022-09-03T05:06:45.399Z,15.20
2022-09-03T05:09:47.359Z,15.20
2022-09-03T05:12:59.047Z,15.40
2022-09-03T05:16:02.552Z,15.50
2022-09-03T05:19:06.154Z,15.60
2022-09-03T05:22:09.349Z,15.60
2022-09-03T05:25:11.230Z,15.60
2022-09-03T05:28:13.389Z,15.70
2022-09-03T05:31:17.551Z,15.70
2022-09-03T05:34:19.530Z,15.70
2022-09-03T05:37:21.445Z,15.70
2022-09-03T05:40:23.391Z,15.70
2022-09-03T05:43:25.280Z,15.80
2022-09-03T05:46:33.494Z,15.80
2022-09-03T05:49:35.465Z,15.90
2022-09-03T05:52:37.995Z,16.10
2022-09-03T05:55:39.902Z,16.10
2022-09-03T05:58:45.125Z,16.20
2022-09-03T06:01:51.014Z,16.40
2022-09-03T06:04:56.002Z,16.50
2022-09-03T06:07:57.926Z,16.60
2022-09-03T06:11:01.278Z,17.00
2022-09-03T06:14:05.954Z,17.30
2022-09-03T06:17:13.854Z,17.20
2022-09-03T06:20:15.776Z,17.30
2022-09-03T06:23:18.280Z,17.40
2022-09-03T06:26:20.997Z,17.30
2022-09-03T06:29:23.471Z,17.40
2022-09-03T06:32:25.348Z,18.00
2022-09-03T06:35:27.253Z,18.00
2022-09-03T06:38:35.835Z,17.80
2022-09-03T06:41:38.150Z,17.80
2022-09-03T06:44:40.116Z,17.50
2022-09-03T06:47:42.031Z,17.60
2022-09-03T06:50:43.931Z,17.60
2022-09-03T06:53:48.558Z,17.80
2022-09-03T06:56:50.438Z,17.90
2022-09-03T06:59:54.713Z,18.10
2022-09-03T07:02:59.164Z,17.90
2022-09-03T07:06:05.333Z,17.70
2022-09-03T07:09:08.501Z,17.90
2022-09-03T07:12:12.193Z,17.90
2022-09-03T07:15:14.114Z,18.10
2022-09-03T07:18:17.231Z,18.30
2022-09-03T07:21:25.108Z,18.30
2022-09-03T07:24:28.056Z,18.20
2022-09-03T07:27:30.541Z,18.40
2022-09-03T07:30:32.488Z,18.50
2022-09-03T07:33:34.892Z,18.60
2022-09-03T07:36:42.183Z,18.60
2022-09-03T07:39:44.141Z,18.60
2022-09-03T07:42:51.040Z,18.80
2022-09-03T07:45:57.170Z,18.50
2022-09-03T07:49:02.384Z,18.30
2022-09-03T07:52:04.508Z,18.50
2022-09-03T07:55:07.094Z,18.60
2022-09-03T07:58:09.031Z,18.90
2022-09-03T08:01:17.484Z,18.60
2022-09-03T08:04:19.417Z,18.80
2022-09-03T08:07:21.521Z,18.90
2022-09-03T08:10:24.711Z,18.80
2022-09-03T08:13:27.065Z,19.00
2022-09-03T08:16:37.070Z,19.00
2022-09-03T08:19:40.354Z,18.80
2022-09-03T08:22:42.116Z,18.90
2022-09-03T08:25:45.031Z,18.60
2022-09-03T08:28:47.143Z,18.50
2022-09-03T08:31:49.674Z,18.50
2022-09-03T08:34:52.339Z,18.60
2022-09-03T08:37:56.887Z,18.60
2022-09-03T08:41:20.880Z,18.70
2022-09-03T08:44:28.793Z,18.70
2022-09-03T08:47:43.701Z,18.70
2022-09-03T08:50:51.624Z,18.80
2022-09-03T08:53:56.700Z,18.80
2022-09-03T08:57:05.632Z,18.90
2022-09-03T09:00:08.240Z,18.90
2022-09-03T09:03:26.045Z,19.10
2022-09-03T09:07:05.024Z,19.10
2022-09-03T09:10:16.384Z,19.10
2022-09-03T09:13:42.778Z,19.00
2022-09-03T09:17:32.809Z,18.80
2022-09-03T09:20:42.681Z,18.70
2022-09-03T09:23:47.947Z,18.80
2022-09-03T09:26:55.296Z,18.80
2022-09-03T09:30:01.969Z,18.80
2022-09-03T09:33:04.376Z,18.90
2022-09-03T09:36:11.483Z,18.90
2022-09-03T09:39:16.156Z,18.80
2022-09-03T09:42:22.591Z,18.90
2022-09-03T09:45:24.665Z,18.90
2022-09-03T09:48:32.751Z,19.00
2022-09-03T09:51:34.602Z,19.00
2022-09-03T09:54:36.808Z,19.10
2022-09-03T09:57:40.644Z,19.20
2022-09-03T10:00:43.008Z,19.20
2022-09-03T10:04:00.067Z,19.20
2022-09-03T10:07:22.983Z,19.00
2022-09-03T10:10:25.746Z,18.80
2022-09-03T10:13:40.192Z,18.80
2022-09-03T10:16:48.976Z,19.00
2022-09-03T10:20:27.808Z,19.10
2022-09-03T10:23:35.889Z,19.00
2022-09-03T10:26:37.938Z,18.90
2022-09-03T10:29:43.559Z,18.90
2022-09-03T10:33:05.223Z,19.10
2022-09-03T10:36:24.390Z,19.10
2022-09-03T10:39:43.333Z,19.00
2022-09-03T10:42:59.056Z,19.20
2022-09-03T10:46:11.172Z,19.00
2022-09-03T10:49:31.743Z,18.90
2022-09-03T10:52:55.248Z,18.80
2022-09-03T10:56:15.606Z,18.80
2022-09-03T10:59:40.100Z,18.70
2022-09-03T11:03:15.963Z,18.70
2022-09-03T11:06:35.521Z,18.60
2022-09-03T11:09:49.003Z,18.70
2022-09-03T11:12:57.588Z,18.60
2022-09-03T11:16:09.475Z,18.60
2022-09-03T11:19:16.950Z,18.60
2022-09-03T11:22:21.343Z,18.60
2022-09-03T11:25:28.651Z,18.60
2022-09-03T11:28:42.190Z,18.50
2022-09-03T11:32:00.274Z,18.50
2022-09-03T11:35:02.197Z,18.60
2022-09-03T11:38:17.516Z,18.50
2022-09-03T11:41:35.828Z,18.50
2022-09-03T11:44:51.472Z,18.50
2022-09-03T11:47:54.457Z,18.50
2022-09-03T11:50:56.398Z,18.50
2022-09-03T11:54:26.071Z,18.50
2022-09-03T11:57:30.471Z,18.40
2022-09-03T12:00:32.352Z,18.40
2022-09-03T12:03:58.048Z,18.30
2022-09-03T12:07:11.795Z,18.30
2022-09-03T12:10:13.872Z,18.30
2022-09-03T12:13:50.960Z,18.20
2022-09-03T12:17:16.854Z,18.20
2022-09-03T12:20:21.146Z,18.20
2022-09-03T12:23:28.269Z,18.20
2022-09-03T12:26:30.283Z,18.10
2022-09-03T12:29:32.515Z,18.00
2022-09-03T12:32:40.295Z,18.10
2022-09-03T12:40:04.831Z,18.00
2022-09-03T12:42:42.016Z,18.00
2022-09-03T12:49:31.413Z,18.00
2022-09-03T12:52:39.348Z,17.90
2022-09-03T12:55:51.604Z,17.90
2022-09-03T12:58:58.280Z,17.30
2022-09-03T13:02:06.014Z,16.80
2022-09-03T13:05:17.013Z,16.60
2022-09-03T13:08:23.729Z,16.20
2022-09-03T13:11:26.879Z,16.00
2022-09-03T13:14:28.785Z,16.00
2022-09-03T13:17:37.331Z,15.80
2022-09-03T13:20:56.272Z,15.80
2022-09-03T13:24:06.957Z,15.70
2022-09-03T13:27:30.086Z,15.60
2022-09-03T13:30:46.695Z,15.60
2022-09-03T13:33:55.028Z,15.50
2022-09-03T13:37:27.581Z,15.30
2022-09-03T13:40:43.062Z,15.20
2022-09-03T13:44:05.136Z,15.10
2022-09-03T13:47:35.143Z,15.00
2022-09-03T13:50:49.235Z,14.50
2022-09-03T13:54:36.566Z,14.30
2022-09-03T13:58:17.193Z,14.50
2022-09-03T14:01:26.162Z,14.50
2022-09-03T14:05:02.303Z,14.20
2022-09-03T14:08:14.184Z,14.20
2022-09-03T14:11:51.313Z,14.00
2022-09-03T14:15:10.701Z,13.90
2022-09-03T14:18:50.937Z,13.90
2022-09-03T14:22:15.261Z,13.80
2022-09-03T14:25:27.723Z,13.70
2022-09-03T14:28:35.220Z,13.70
2022-09-03T14:31:46.092Z,13.60
2022-09-03T14:35:05.955Z,13.40
2022-09-03T14:38:10.431Z,13.40
2022-09-03T14:41:17.025Z,13.40
2022-09-03T14:44:21.473Z,13.40
2022-09-03T14:47:41.621Z,13.30
2022-09-03T14:50:44.518Z,13.20
2022-09-03T14:54:05.202Z,13.20
2022-09-03T14:57:12.900Z,13.10
2022-09-03T15:00:20.359Z,12.90
2022-09-03T15:03:47.044Z,12.70
2022-09-03T15:07:17.923Z,12.80
2022-09-03T15:10:33.109Z,12.90
2022-09-03T15:13:52.583Z,12.80
2022-09-03T15:17:19.309Z,12.80
2022-09-03T15:20:33.446Z,12.80
2022-09-03T15:23:48.768Z,12.80
2022-09-03T15:27:02.308Z,12.70
2022-09-03T15:30:10.889Z,12.70
2022-09-03T15:33:22.257Z,12.70
2022-09-03T15:36:27.525Z,12.70
2022-09-03T15:39:34.462Z,12.70
2022-09-03T15:42:40.851Z,12.60
2022-09-03T15:45:48.732Z,12.60
2022-09-03T15:49:03.614Z,12.50
2022-09-03T15:52:40.549Z,12.50
2022-09-03T15:55:44.586Z,12.40
2022-09-03T15:59:21.573Z,12.40
2022-09-03T16:02:40.906Z,12.30
2022-09-03T16:05:47.052Z,12.30
2022-09-03T16:09:00.209Z,12.40
2022-09-03T16:12:34.353Z,12.40
2022-09-03T16:15:57.750Z,12.30
2022-09-03T16:19:35.294Z,12.30
2022-09-03T16:22:57.457Z,12.30
2022-09-03T16:26:08.327Z,12.30
2022-09-03T16:29:16.400Z,12.30
2022-09-03T16:32:48.443Z,12.30
2022-09-03T16:36:13.031Z,12.30
2022-09-03T16:39:36.737Z,12.30
2022-09-03T16:42:38.575Z,12.40
2022-09-03T16:45:59.685Z,12.40
2022-09-03T16:49:38.032Z,12.40
2022-09-03T16:52:53.337Z,12.40
2022-09-03T16:56:33.868Z,12.40
2022-09-03T17:00:01.935Z,12.50
2022-09-03T17:03:25.105Z,12.50
2022-09-03T17:06:49.406Z,12.50
2022-09-03T17:10:08.878Z,12.50
2022-09-03T17:13:38.580Z,12.50
2022-09-03T17:16:58.149Z,12.50
2022-09-03T17:20:26.419Z,12.50
2022-09-03T17:23:59.034Z,12.50
2022-09-03T17:27:29.826Z,12.60
2022-09-03T17:31:16.167Z,12.60
2022-09-03T17:59:25.936Z,13.00
2022-09-03T18:02:46.182Z,13.00
2022-09-03T18:05:59.867Z,13.00
2022-09-03T18:09:17.851Z,13.00
2022-09-03T18:12:22.496Z,13.00
2022-09-03T18:15:38.070Z,13.00
2022-09-03T18:18:50.156Z,13.00
2022-09-03T18:22:12.230Z,13.00
2022-09-03T18:25:33.271Z,13.10
2022-09-03T18:29:08.991Z,13.10
2022-09-03T18:32:30.266Z,13.10
2022-09-03T18:35:51.827Z,13.10
2022-09-03T18:39:15.746Z,13.10
2022-09-03T18:43:01.292Z,13.10
2022-09-03T18:48:01.003Z,13.10
2022-09-03T18:50:48.841Z,13.10
2022-09-03T18:54:23.485Z,13.10
2022-09-03T18:58:36.120Z,13.00
2022-09-03T19:02:01.578Z,13.00
2022-09-03T19:05:37.709Z,13.00
2022-09-03T19:09:28.709Z,13.10
2022-09-03T19:13:21.461Z,13.10
2022-09-03T19:17:09.072Z,13.00
2022-09-03T19:21:00.512Z,13.10
2022-09-03T19:24:21.570Z,13.10
2022-09-03T19:27:58.662Z,13.00
2022-09-03T19:31:37.983Z,12.80
2022-09-03T19:35:13.136Z,12.80
2022-09-03T19:38:43.780Z,12.80
2022-09-03T19:42:23.608Z,12.80
2022-09-03T19:45:53.402Z,12.70
2022-09-03T19:49:42.836Z,12.70
2022-09-03T19:53:23.898Z,12.60
2022-09-03T19:56:48.012Z,12.60
2022-09-03T20:00:08.925Z,12.60
2022-09-03T20:03:32.520Z,12.60
2022-09-03T20:06:54.534Z,12.60
2022-09-03T20:10:18.350Z,12.60
2022-09-03T20:13:20.981Z,12.60
2022-09-03T20:16:55.723Z,12.60
2022-09-03T20:20:06.642Z,12.50
2022-09-03T20:23:23.370Z,12.50
2022-09-03T20:26:45.893Z,12.50
2022-09-03T20:30:01.746Z,12.40
2022-09-03T20:33:45.792Z,12.40
2022-09-03T20:37:09.915Z,12.50
2022-09-03T20:40:14.558Z,12.40
2022-09-03T20:43:47.648Z,12.40
2022-09-03T20:47:15.008Z,12.40
2022-09-03T20:50:53.358Z,12.40
2022-09-03T20:54:08.780Z,12.50
2022-09-03T20:57:31.398Z,12.40
2022-09-03T21:00:45.212Z,12.50
2022-09-03T21:04:12.935Z,12.50
2022-09-03T21:07:22.134Z,12.50
2022-09-03T21:10:24.504Z,12.40
2022-09-03T21:13:45.463Z,12.40
2022-09-03T21:17:23.938Z,12.40
2022-09-03T21:20:47.796Z,12.40
2022-09-03T21:24:23.679Z,12.40
2022-09-03T21:27:40.930Z,12.40
2022-09-03T21:30:49.574Z,12.40
2022-09-03T21:33:57.977Z,12.40
2022-09-03T21:37:04.243Z,12.40
2022-09-03T21:40:09.358Z,12.40
2022-09-03T21:43:38.633Z,12.40
2022-09-03T21:46:52.604Z,12.40
2022-09-03T21:50:23.187Z,12.40
2022-09-03T21:53:31.855Z,12.40
2022-09-03T21:56:39.818Z,12.40
2022-09-03T21:59:48.007Z,12.40
2022-09-03T22:02:50.361Z,12.40
2022-09-03T22:06:05.758Z,12.40
2022-09-03T22:09:17.093Z,12.40
2022-09-03T22:12:37.543Z,12.30
2022-09-03T22:15:39.811Z,12.30
2022-09-03T22:18:43.319Z,12.30
2022-09-03T22:22:00.617Z,12.30
2022-09-03T22:25:17.351Z,12.30
2022-09-03T22:28:32.969Z,12.30
2022-09-03T22:31:50.147Z,12.30
2022-09-03T22:35:33.558Z,12.30
2022-09-03T22:38:42.073Z,12.30
2022-09-03T22:42:02.036Z,12.20
2022-09-03T22:45:48.008Z,12.20
2022-09-03T22:48:58.619Z,12.20
2022-09-03T22:52:06.087Z,12.10
2022-09-03T22:55:21.330Z,12.00
2022-09-03T22:58:28.883Z,12.00
2022-09-03T23:01:42.923Z,12.00
2022-09-03T23:04:55.995Z,12.00
2022-09-03T23:08:03.335Z,11.90
2022-09-03T23:11:27.728Z,11.90
2022-09-03T23:14:36.792Z,11.90
2022-09-03T23:17:44.486Z,11.90
2022-09-03T23:21:16.054Z,12.00
2022-09-03T23:24:28.220Z,12.00
2022-09-03T23:27:55.466Z,12.00
2022-09-03T23:31:13.527Z,12.00
2022-09-03T23:34:15.876Z,12.10
2022-09-03T23:37:35.444Z,12.00
2022-09-03T23:40:46.355Z,12.00
2022-09-03T23:44:25.598Z,12.10
2022-09-03T23:47:49.002Z,12.10
2022-09-03T23:51:33.940Z,12.10
2022-09-03T23:54:51.201Z,12.10
2022-09-03T23:58:08.083Z,12.10
